sensor_id;sensor_type;location;lat;lon;timestamp;P1;durP1;ratioP1;P2;durP2;ratioP2
6105;SDS011;3083;51.508;7.966;2023-11-21T00:02:14;29.13;;;15.70;;
6105;SDS011;3083;51.508;7.966;2023-11-21T00:04:41;29.83;;;16.03;;
6105;SDS011;3083;51.508;7.966;2023-11-21T00:07:09;30.83;;;16.57;;
6105;SDS011;3083;51.508;7.966;2023-11-21T00:09:35;30.60;;;16.13;;
6105;SDS011;3083;51.508;7.966;2023-11-21T00:12:02;31.57;;;15.67;;
6105;SDS011;3083;51.508;7.966;2023-11-21T00:14:31;35.77;;;17.20;;
6105;SDS011;3083;51.508;7.966;2023-11-21T00:16:58;30.20;;;16.60;;
6105;SDS011;3083;51.508;7.966;2023-11-21T00:19:25;28.00;;;15.03;;
6105;SDS011;3083;51.508;7.966;2023-11-21T00:21:52;33.07;;;16.23;;
6105;SDS011;3083;51.508;7.966;2023-11-21T00:24:20;28.27;;;15.50;;
6105;SDS011;3083;51.508;7.966;2023-11-21T00:26:47;24.73;;;15.67;;
6105;SDS011;3083;51.508;7.966;2023-11-21T00:29:14;27.73;;;15.73;;
6105;SDS011;3083;51.508;7.966;2023-11-21T00:31:42;28.80;;;15.67;;
6105;SDS011;3083;51.508;7.966;2023-11-21T00:34:09;28.53;;;16.90;;
6105;SDS011;3083;51.508;7.966;2023-11-21T00:36:37;32.83;;;15.60;;
6105;SDS011;3083;51.508;7.966;2023-11-21T00:39:04;32.57;;;16.30;;
6105;SDS011;3083;51.508;7.966;2023-11-21T00:41:33;32.97;;;17.10;;
6105;SDS011;3083;51.508;7.966;2023-11-21T00:44:01;27.47;;;14.77;;
6105;SDS011;3083;51.508;7.966;2023-11-21T00:46:28;29.20;;;14.10;;
6105;SDS011;3083;51.508;7.966;2023-11-21T00:48:54;28.73;;;14.80;;
6105;SDS011;3083;51.508;7.966;2023-11-21T00:51:21;33.03;;;14.20;;
6105;SDS011;3083;51.508;7.966;2023-11-21T00:53:48;28.13;;;13.53;;
6105;SDS011;3083;51.508;7.966;2023-11-21T00:56:15;28.10;;;14.17;;
6105;SDS011;3083;51.508;7.966;2023-11-21T00:58:44;34.27;;;13.90;;
6105;SDS011;3083;51.508;7.966;2023-11-21T01:01:14;31.57;;;14.40;;
6105;SDS011;3083;51.508;7.966;2023-11-21T01:03:41;26.13;;;13.90;;
6105;SDS011;3083;51.508;7.966;2023-11-21T01:06:08;28.53;;;13.87;;
6105;SDS011;3083;51.508;7.966;2023-11-21T01:08:35;29.20;;;14.00;;
6105;SDS011;3083;51.508;7.966;2023-11-21T01:11:02;26.57;;;14.00;;
6105;SDS011;3083;51.508;7.966;2023-11-21T01:13:29;38.03;;;14.80;;
6105;SDS011;3083;51.508;7.966;2023-11-21T01:15:58;28.50;;;14.07;;
6105;SDS011;3083;51.508;7.966;2023-11-21T01:18:25;27.97;;;14.03;;
6105;SDS011;3083;51.508;7.966;2023-11-21T01:20:51;33.40;;;15.10;;
6105;SDS011;3083;51.508;7.966;2023-11-21T01:23:19;30.73;;;15.17;;
6105;SDS011;3083;51.508;7.966;2023-11-21T01:25:45;34.57;;;17.13;;
6105;SDS011;3083;51.508;7.966;2023-11-21T01:28:12;31.87;;;17.60;;
6105;SDS011;3083;51.508;7.966;2023-11-21T01:30:39;35.60;;;17.27;;
6105;SDS011;3083;51.508;7.966;2023-11-21T01:33:07;40.40;;;18.20;;
6105;SDS011;3083;51.508;7.966;2023-11-21T01:35:34;40.10;;;17.80;;
6105;SDS011;3083;51.508;7.966;2023-11-21T01:38:01;33.03;;;16.93;;
6105;SDS011;3083;51.508;7.966;2023-11-21T01:40:28;38.83;;;17.40;;
6105;SDS011;3083;51.508;7.966;2023-11-21T01:42:55;35.30;;;16.80;;
6105;SDS011;3083;51.508;7.966;2023-11-21T01:45:23;31.83;;;16.87;;
6105;SDS011;3083;51.508;7.966;2023-11-21T01:47:50;31.63;;;16.30;;
6105;SDS011;3083;51.508;7.966;2023-11-21T01:50:19;35.83;;;17.27;;
6105;SDS011;3083;51.508;7.966;2023-11-21T01:52:47;30.80;;;15.80;;
6105;SDS011;3083;51.508;7.966;2023-11-21T01:55:15;27.40;;;15.00;;
6105;SDS011;3083;51.508;7.966;2023-11-21T01:57:44;38.60;;;15.30;;
6105;SDS011;3083;51.508;7.966;2023-11-21T02:00:12;32.50;;;16.20;;
6105;SDS011;3083;51.508;7.966;2023-11-21T02:02:42;29.07;;;14.70;;
6105;SDS011;3083;51.508;7.966;2023-11-21T02:05:09;28.23;;;15.17;;
6105;SDS011;3083;51.508;7.966;2023-11-21T02:07:38;28.80;;;14.07;;
6105;SDS011;3083;51.508;7.966;2023-11-21T02:10:06;26.80;;;14.77;;
6105;SDS011;3083;51.508;7.966;2023-11-21T02:12:33;28.43;;;14.87;;
6105;SDS011;3083;51.508;7.966;2023-11-21T02:15:01;25.83;;;13.33;;
6105;SDS011;3083;51.508;7.966;2023-11-21T02:17:30;34.30;;;15.20;;
6105;SDS011;3083;51.508;7.966;2023-11-21T02:19:57;29.60;;;13.63;;
6105;SDS011;3083;51.508;7.966;2023-11-21T02:22:25;30.30;;;14.43;;
6105;SDS011;3083;51.508;7.966;2023-11-21T02:24:58;30.27;;;14.27;;
6105;SDS011;3083;51.508;7.966;2023-11-21T02:27:26;31.13;;;13.47;;
6105;SDS011;3083;51.508;7.966;2023-11-21T02:29:53;30.23;;;13.90;;
6105;SDS011;3083;51.508;7.966;2023-11-21T02:32:20;37.40;;;17.17;;
6105;SDS011;3083;51.508;7.966;2023-11-21T02:34:48;37.60;;;16.93;;
6105;SDS011;3083;51.508;7.966;2023-11-21T02:37:15;41.93;;;17.77;;
6105;SDS011;3083;51.508;7.966;2023-11-21T02:39:41;36.40;;;17.27;;
6105;SDS011;3083;51.508;7.966;2023-11-21T02:42:10;36.67;;;18.73;;
6105;SDS011;3083;51.508;7.966;2023-11-21T02:44:36;42.33;;;17.67;;
6105;SDS011;3083;51.508;7.966;2023-11-21T02:47:03;35.90;;;17.97;;
6105;SDS011;3083;51.508;7.966;2023-11-21T02:49:30;34.50;;;16.97;;
6105;SDS011;3083;51.508;7.966;2023-11-21T02:51:59;37.20;;;16.20;;
6105;SDS011;3083;51.508;7.966;2023-11-21T02:54:26;33.40;;;16.90;;
6105;SDS011;3083;51.508;7.966;2023-11-21T02:56:54;30.17;;;15.47;;
6105;SDS011;3083;51.508;7.966;2023-11-21T02:59:22;31.20;;;15.57;;
6105;SDS011;3083;51.508;7.966;2023-11-21T03:01:49;37.33;;;15.10;;
6105;SDS011;3083;51.508;7.966;2023-11-21T03:04:16;32.53;;;15.83;;
6105;SDS011;3083;51.508;7.966;2023-11-21T03:06:43;30.67;;;15.30;;
6105;SDS011;3083;51.508;7.966;2023-11-21T03:09:10;32.70;;;14.73;;
6105;SDS011;3083;51.508;7.966;2023-11-21T03:11:38;29.53;;;14.70;;
6105;SDS011;3083;51.508;7.966;2023-11-21T03:14:05;27.67;;;13.80;;
6105;SDS011;3083;51.508;7.966;2023-11-21T03:16:33;28.53;;;15.10;;
6105;SDS011;3083;51.508;7.966;2023-11-21T03:19:00;27.70;;;15.23;;
6105;SDS011;3083;51.508;7.966;2023-11-21T03:21:27;26.67;;;13.80;;
6105;SDS011;3083;51.508;7.966;2023-11-21T03:23:54;28.57;;;13.90;;
6105;SDS011;3083;51.508;7.966;2023-11-21T03:26:21;32.93;;;15.00;;
6105;SDS011;3083;51.508;7.966;2023-11-21T03:28:48;30.63;;;15.83;;
6105;SDS011;3083;51.508;7.966;2023-11-21T03:31:15;29.63;;;14.70;;
6105;SDS011;3083;51.508;7.966;2023-11-21T03:33:45;31.43;;;16.10;;
6105;SDS011;3083;51.508;7.966;2023-11-21T03:36:12;33.80;;;14.73;;
6105;SDS011;3083;51.508;7.966;2023-11-21T03:38:39;32.47;;;14.53;;
6105;SDS011;3083;51.508;7.966;2023-11-21T03:41:06;33.93;;;15.50;;
6105;SDS011;3083;51.508;7.966;2023-11-21T03:43:35;34.70;;;16.00;;
6105;SDS011;3083;51.508;7.966;2023-11-21T03:46:02;30.40;;;15.73;;
6105;SDS011;3083;51.508;7.966;2023-11-21T03:48:29;35.60;;;16.90;;
6105;SDS011;3083;51.508;7.966;2023-11-21T03:50:57;30.57;;;14.67;;
6105;SDS011;3083;51.508;7.966;2023-11-21T03:53:24;32.83;;;15.77;;
6105;SDS011;3083;51.508;7.966;2023-11-21T03:55:51;29.43;;;15.07;;
6105;SDS011;3083;51.508;7.966;2023-11-21T03:58:17;31.00;;;15.00;;
6105;SDS011;3083;51.508;7.966;2023-11-21T04:00:44;34.90;;;16.23;;
6105;SDS011;3083;51.508;7.966;2023-11-21T04:03:12;42.77;;;15.70;;
6105;SDS011;3083;51.508;7.966;2023-11-21T04:05:39;32.47;;;15.73;;
6105;SDS011;3083;51.508;7.966;2023-11-21T04:08:08;35.90;;;17.90;;
6105;SDS011;3083;51.508;7.966;2023-11-21T04:10:35;36.40;;;17.73;;
6105;SDS011;3083;51.508;7.966;2023-11-21T04:13:04;36.03;;;15.70;;
6105;SDS011;3083;51.508;7.966;2023-11-21T04:15:31;33.10;;;17.07;;
6105;SDS011;3083;51.508;7.966;2023-11-21T04:17:58;33.00;;;16.57;;
6105;SDS011;3083;51.508;7.966;2023-11-21T04:20:25;30.73;;;16.17;;
6105;SDS011;3083;51.508;7.966;2023-11-21T04:22:52;37.80;;;17.13;;
6105;SDS011;3083;51.508;7.966;2023-11-21T04:25:20;31.13;;;15.80;;
6105;SDS011;3083;51.508;7.966;2023-11-21T04:27:48;30.30;;;14.07;;
6105;SDS011;3083;51.508;7.966;2023-11-21T04:30:15;33.03;;;16.00;;
6105;SDS011;3083;51.508;7.966;2023-11-21T04:32:42;51.57;;;19.13;;
6105;SDS011;3083;51.508;7.966;2023-11-21T04:35:09;33.43;;;15.53;;
6105;SDS011;3083;51.508;7.966;2023-11-21T04:37:36;28.63;;;14.87;;
6105;SDS011;3083;51.508;7.966;2023-11-21T04:40:03;40.10;;;15.90;;
6105;SDS011;3083;51.508;7.966;2023-11-21T04:42:34;34.17;;;16.00;;
6105;SDS011;3083;51.508;7.966;2023-11-21T04:45:01;42.67;;;16.53;;
6105;SDS011;3083;51.508;7.966;2023-11-21T04:47:30;35.77;;;16.60;;
6105;SDS011;3083;51.508;7.966;2023-11-21T04:49:57;32.27;;;15.03;;
6105;SDS011;3083;51.508;7.966;2023-11-21T04:52:25;33.63;;;15.97;;
6105;SDS011;3083;51.508;7.966;2023-11-21T04:54:51;32.10;;;15.07;;
6105;SDS011;3083;51.508;7.966;2023-11-21T04:57:19;27.83;;;15.17;;
6105;SDS011;3083;51.508;7.966;2023-11-21T04:59:48;31.97;;;16.27;;
6105;SDS011;3083;51.508;7.966;2023-11-21T05:02:15;33.97;;;15.63;;
6105;SDS011;3083;51.508;7.966;2023-11-21T05:04:44;42.53;;;17.00;;
6105;SDS011;3083;51.508;7.966;2023-11-21T05:07:11;35.53;;;16.20;;
6105;SDS011;3083;51.508;7.966;2023-11-21T05:09:40;31.57;;;15.20;;
6105;SDS011;3083;51.508;7.966;2023-11-21T05:12:09;34.13;;;15.07;;
6105;SDS011;3083;51.508;7.966;2023-11-21T05:14:36;36.03;;;15.90;;
6105;SDS011;3083;51.508;7.966;2023-11-21T05:17:05;33.57;;;15.73;;
6105;SDS011;3083;51.508;7.966;2023-11-21T05:19:33;36.87;;;16.37;;
6105;SDS011;3083;51.508;7.966;2023-11-21T05:22:01;36.10;;;16.77;;
6105;SDS011;3083;51.508;7.966;2023-11-21T05:24:27;34.00;;;15.90;;
6105;SDS011;3083;51.508;7.966;2023-11-21T05:26:54;32.03;;;15.40;;
6105;SDS011;3083;51.508;7.966;2023-11-21T05:29:22;36.43;;;15.90;;
6105;SDS011;3083;51.508;7.966;2023-11-21T05:31:50;31.83;;;15.83;;
6105;SDS011;3083;51.508;7.966;2023-11-21T05:34:19;33.77;;;14.87;;
6105;SDS011;3083;51.508;7.966;2023-11-21T05:36:48;38.13;;;16.10;;
6105;SDS011;3083;51.508;7.966;2023-11-21T05:39:15;36.53;;;17.40;;
6105;SDS011;3083;51.508;7.966;2023-11-21T05:41:43;36.20;;;16.67;;
6105;SDS011;3083;51.508;7.966;2023-11-21T05:44:10;35.23;;;16.47;;
6105;SDS011;3083;51.508;7.966;2023-11-21T05:46:39;39.20;;;16.37;;
6105;SDS011;3083;51.508;7.966;2023-11-21T05:49:08;37.80;;;15.50;;
6105;SDS011;3083;51.508;7.966;2023-11-21T05:51:36;35.20;;;14.93;;
6105;SDS011;3083;51.508;7.966;2023-11-21T05:54:03;37.50;;;15.63;;
6105;SDS011;3083;51.508;7.966;2023-11-21T05:56:30;40.60;;;16.17;;
6105;SDS011;3083;51.508;7.966;2023-11-21T05:58:57;38.73;;;15.13;;
6105;SDS011;3083;51.508;7.966;2023-11-21T06:01:24;34.90;;;15.77;;
6105;SDS011;3083;51.508;7.966;2023-11-21T06:03:53;31.70;;;14.63;;
6105;SDS011;3083;51.508;7.966;2023-11-21T06:06:20;37.43;;;16.77;;
6105;SDS011;3083;51.508;7.966;2023-11-21T06:08:48;35.50;;;16.30;;
6105;SDS011;3083;51.508;7.966;2023-11-21T06:11:15;45.77;;;14.77;;
6105;SDS011;3083;51.508;7.966;2023-11-21T06:13:42;38.23;;;16.40;;
6105;SDS011;3083;51.508;7.966;2023-11-21T06:16:10;40.27;;;17.30;;
6105;SDS011;3083;51.508;7.966;2023-11-21T06:18:38;44.70;;;16.57;;
6105;SDS011;3083;51.508;7.966;2023-11-21T06:21:05;41.53;;;18.50;;
6105;SDS011;3083;51.508;7.966;2023-11-21T06:23:35;43.43;;;17.33;;
6105;SDS011;3083;51.508;7.966;2023-11-21T06:26:04;36.43;;;17.43;;
6105;SDS011;3083;51.508;7.966;2023-11-21T06:28:31;38.50;;;16.73;;
6105;SDS011;3083;51.508;7.966;2023-11-21T06:30:58;35.93;;;17.37;;
6105;SDS011;3083;51.508;7.966;2023-11-21T06:33:29;34.30;;;17.90;;
6105;SDS011;3083;51.508;7.966;2023-11-21T06:35:56;40.00;;;17.57;;
6105;SDS011;3083;51.508;7.966;2023-11-21T06:38:23;41.60;;;18.90;;
6105;SDS011;3083;51.508;7.966;2023-11-21T06:40:55;44.90;;;19.37;;
6105;SDS011;3083;51.508;7.966;2023-11-21T06:43:23;45.27;;;18.57;;
6105;SDS011;3083;51.508;7.966;2023-11-21T06:45:50;39.70;;;18.97;;
6105;SDS011;3083;51.508;7.966;2023-11-21T06:48:17;40.70;;;17.33;;
6105;SDS011;3083;51.508;7.966;2023-11-21T06:50:43;39.63;;;17.53;;
6105;SDS011;3083;51.508;7.966;2023-11-21T06:53:11;40.10;;;18.07;;
6105;SDS011;3083;51.508;7.966;2023-11-21T06:55:38;42.57;;;19.27;;
6105;SDS011;3083;51.508;7.966;2023-11-21T06:58:05;38.50;;;17.70;;
6105;SDS011;3083;51.508;7.966;2023-11-21T07:00:33;45.93;;;19.70;;
6105;SDS011;3083;51.508;7.966;2023-11-21T07:03:00;44.57;;;20.07;;
6105;SDS011;3083;51.508;7.966;2023-11-21T07:05:27;36.13;;;17.80;;
6105;SDS011;3083;51.508;7.966;2023-11-21T07:07:54;44.77;;;18.50;;
6105;SDS011;3083;51.508;7.966;2023-11-21T07:10:21;44.77;;;19.47;;
6105;SDS011;3083;51.508;7.966;2023-11-21T07:12:47;34.23;;;17.27;;
6105;SDS011;3083;51.508;7.966;2023-11-21T07:15:16;43.77;;;18.70;;
6105;SDS011;3083;51.508;7.966;2023-11-21T07:17:45;49.63;;;18.20;;
6105;SDS011;3083;51.508;7.966;2023-11-21T07:20:13;45.90;;;18.87;;
6105;SDS011;3083;51.508;7.966;2023-11-21T07:22:42;43.20;;;19.30;;
6105;SDS011;3083;51.508;7.966;2023-11-21T07:25:09;46.57;;;19.27;;
6105;SDS011;3083;51.508;7.966;2023-11-21T07:27:36;45.97;;;18.70;;
6105;SDS011;3083;51.508;7.966;2023-11-21T07:30:03;43.73;;;19.00;;
6105;SDS011;3083;51.508;7.966;2023-11-21T07:32:32;42.77;;;18.40;;
6105;SDS011;3083;51.508;7.966;2023-11-21T07:35:01;47.10;;;19.70;;
6105;SDS011;3083;51.508;7.966;2023-11-21T07:37:28;44.60;;;19.80;;
6105;SDS011;3083;51.508;7.966;2023-11-21T07:39:55;40.33;;;18.30;;
6105;SDS011;3083;51.508;7.966;2023-11-21T07:42:22;46.87;;;19.30;;
6105;SDS011;3083;51.508;7.966;2023-11-21T07:44:52;42.70;;;18.53;;
6105;SDS011;3083;51.508;7.966;2023-11-21T07:47:19;47.40;;;20.07;;
6105;SDS011;3083;51.508;7.966;2023-11-21T07:49:46;45.33;;;20.27;;
6105;SDS011;3083;51.508;7.966;2023-11-21T07:52:14;38.80;;;17.93;;
6105;SDS011;3083;51.508;7.966;2023-11-21T07:54:41;46.60;;;19.40;;
6105;SDS011;3083;51.508;7.966;2023-11-21T07:57:08;47.17;;;19.80;;
6105;SDS011;3083;51.508;7.966;2023-11-21T07:59:38;50.07;;;19.43;;
6105;SDS011;3083;51.508;7.966;2023-11-21T08:02:05;51.03;;;19.77;;
6105;SDS011;3083;51.508;7.966;2023-11-21T08:04:32;51.87;;;20.40;;
6105;SDS011;3083;51.508;7.966;2023-11-21T08:07:00;40.77;;;19.87;;
6105;SDS011;3083;51.508;7.966;2023-11-21T08:09:30;42.30;;;19.17;;
6105;SDS011;3083;51.508;7.966;2023-11-21T08:11:58;54.57;;;20.73;;
6105;SDS011;3083;51.508;7.966;2023-11-21T08:14:25;48.80;;;20.30;;
6105;SDS011;3083;51.508;7.966;2023-11-21T08:16:52;60.00;;;22.20;;
6105;SDS011;3083;51.508;7.966;2023-11-21T08:19:22;47.23;;;19.57;;
6105;SDS011;3083;51.508;7.966;2023-11-21T08:21:50;58.53;;;22.60;;
6105;SDS011;3083;51.508;7.966;2023-11-21T08:24:19;56.90;;;22.67;;
6105;SDS011;3083;51.508;7.966;2023-11-21T08:26:48;61.83;;;21.67;;
6105;SDS011;3083;51.508;7.966;2023-11-21T08:29:16;60.27;;;22.50;;
6105;SDS011;3083;51.508;7.966;2023-11-21T08:31:43;63.20;;;23.03;;
6105;SDS011;3083;51.508;7.966;2023-11-21T08:34:11;69.17;;;22.57;;
6105;SDS011;3083;51.508;7.966;2023-11-21T08:36:41;68.20;;;23.10;;
6105;SDS011;3083;51.508;7.966;2023-11-21T08:39:08;77.43;;;24.83;;
6105;SDS011;3083;51.508;7.966;2023-11-21T08:41:35;74.83;;;25.27;;
6105;SDS011;3083;51.508;7.966;2023-11-21T08:44:04;77.67;;;27.00;;
6105;SDS011;3083;51.508;7.966;2023-11-21T08:46:32;78.63;;;25.00;;
6105;SDS011;3083;51.508;7.966;2023-11-21T08:49:03;81.17;;;23.80;;
6105;SDS011;3083;51.508;7.966;2023-11-21T08:51:31;85.07;;;24.83;;
6105;SDS011;3083;51.508;7.966;2023-11-21T08:53:58;91.83;;;23.70;;
6105;SDS011;3083;51.508;7.966;2023-11-21T08:56:27;97.83;;;25.83;;
6105;SDS011;3083;51.508;7.966;2023-11-21T08:58:54;97.70;;;23.40;;
6105;SDS011;3083;51.508;7.966;2023-11-21T09:01:22;106.27;;;25.17;;
6105;SDS011;3083;51.508;7.966;2023-11-21T09:03:49;102.47;;;26.20;;
6105;SDS011;3083;51.508;7.966;2023-11-21T09:06:16;94.83;;;23.40;;
6105;SDS011;3083;51.508;7.966;2023-11-21T09:08:44;103.20;;;25.80;;
6105;SDS011;3083;51.508;7.966;2023-11-21T09:11:11;94.53;;;25.43;;
6105;SDS011;3083;51.508;7.966;2023-11-21T09:13:38;115.87;;;25.60;;
6105;SDS011;3083;51.508;7.966;2023-11-21T09:16:05;103.40;;;26.80;;
6105;SDS011;3083;51.508;7.966;2023-11-21T09:18:34;85.40;;;24.00;;
6105;SDS011;3083;51.508;7.966;2023-11-21T09:21:01;93.93;;;25.80;;
6105;SDS011;3083;51.508;7.966;2023-11-21T09:23:29;90.87;;;25.80;;
6105;SDS011;3083;51.508;7.966;2023-11-21T09:25:56;82.93;;;26.63;;
6105;SDS011;3083;51.508;7.966;2023-11-21T09:28:25;98.40;;;26.40;;
6105;SDS011;3083;51.508;7.966;2023-11-21T09:30:52;97.67;;;27.70;;
6105;SDS011;3083;51.508;7.966;2023-11-21T09:33:19;102.37;;;26.33;;
6105;SDS011;3083;51.508;7.966;2023-11-21T09:35:48;94.00;;;27.50;;
6105;SDS011;3083;51.508;7.966;2023-11-21T09:38:16;91.27;;;28.40;;
6105;SDS011;3083;51.508;7.966;2023-11-21T09:40:42;108.60;;;28.40;;
6105;SDS011;3083;51.508;7.966;2023-11-21T09:43:15;101.47;;;26.97;;
6105;SDS011;3083;51.508;7.966;2023-11-21T09:45:45;105.93;;;28.30;;
6105;SDS011;3083;51.508;7.966;2023-11-21T09:48:15;97.33;;;26.87;;
6105;SDS011;3083;51.508;7.966;2023-11-21T09:50:44;99.53;;;27.80;;
6105;SDS011;3083;51.508;7.966;2023-11-21T09:53:17;99.60;;;26.30;;
6105;SDS011;3083;51.508;7.966;2023-11-21T09:55:46;98.47;;;27.40;;
6105;SDS011;3083;51.508;7.966;2023-11-21T09:58:16;90.80;;;26.30;;
6105;SDS011;3083;51.508;7.966;2023-11-21T10:00:45;89.93;;;27.00;;
6105;SDS011;3083;51.508;7.966;2023-11-21T10:03:13;105.07;;;25.73;;
6105;SDS011;3083;51.508;7.966;2023-11-21T10:05:41;96.87;;;25.50;;
6105;SDS011;3083;51.508;7.966;2023-11-21T10:08:10;82.83;;;25.00;;
6105;SDS011;3083;51.508;7.966;2023-11-21T10:10:41;109.37;;;26.07;;
6105;SDS011;3083;51.508;7.966;2023-11-21T10:13:10;109.70;;;27.80;;
6105;SDS011;3083;51.508;7.966;2023-11-21T10:15:41;113.90;;;28.27;;
6105;SDS011;3083;51.508;7.966;2023-11-21T10:18:13;93.20;;;26.40;;
6105;SDS011;3083;51.508;7.966;2023-11-21T10:20:41;89.17;;;25.83;;
6105;SDS011;3083;51.508;7.966;2023-11-21T10:23:09;93.07;;;25.43;;
6105;SDS011;3083;51.508;7.966;2023-11-21T10:25:39;93.30;;;25.03;;
6105;SDS011;3083;51.508;7.966;2023-11-21T10:28:06;92.53;;;24.37;;
6105;SDS011;3083;51.508;7.966;2023-11-21T10:30:34;94.30;;;27.37;;
6105;SDS011;3083;51.508;7.966;2023-11-21T10:33:03;92.33;;;27.50;;
6105;SDS011;3083;51.508;7.966;2023-11-21T10:35:43;81.67;;;27.30;;
6105;SDS011;3083;51.508;7.966;2023-11-21T10:38:16;91.50;;;28.37;;
6105;SDS011;3083;51.508;7.966;2023-11-21T10:40:44;95.40;;;27.40;;
6105;SDS011;3083;51.508;7.966;2023-11-21T10:43:11;110.33;;;30.97;;
6105;SDS011;3083;51.508;7.966;2023-11-21T10:45:40;89.17;;;26.90;;
6105;SDS011;3083;51.508;7.966;2023-11-21T10:48:07;109.90;;;31.20;;
6105;SDS011;3083;51.508;7.966;2023-11-21T10:50:35;119.20;;;30.00;;
6105;SDS011;3083;51.508;7.966;2023-11-21T10:53:03;107.07;;;29.97;;
6105;SDS011;3083;51.508;7.966;2023-11-21T10:55:31;109.63;;;30.87;;
6105;SDS011;3083;51.508;7.966;2023-11-21T10:58:00;109.03;;;31.77;;
6105;SDS011;3083;51.508;7.966;2023-11-21T11:00:30;125.93;;;32.83;;
6105;SDS011;3083;51.508;7.966;2023-11-21T11:02:58;118.60;;;32.10;;
6105;SDS011;3083;51.508;7.966;2023-11-21T11:05:26;130.03;;;31.57;;
6105;SDS011;3083;51.508;7.966;2023-11-21T11:07:56;128.97;;;32.40;;
6105;SDS011;3083;51.508;7.966;2023-11-21T11:10:26;121.00;;;29.57;;
6105;SDS011;3083;51.508;7.966;2023-11-21T11:12:54;114.33;;;29.77;;
6105;SDS011;3083;51.508;7.966;2023-11-21T11:15:23;91.77;;;26.03;;
6105;SDS011;3083;51.508;7.966;2023-11-21T11:17:51;103.53;;;25.10;;
6105;SDS011;3083;51.508;7.966;2023-11-21T11:20:22;92.83;;;24.77;;
6105;SDS011;3083;51.508;7.966;2023-11-21T11:22:56;77.60;;;22.27;;
6105;SDS011;3083;51.508;7.966;2023-11-21T11:25:39;97.60;;;22.97;;
6105;SDS011;3083;51.508;7.966;2023-11-21T11:28:27;71.00;;;18.93;;
6105;SDS011;3083;51.508;7.966;2023-11-21T11:31:04;61.67;;;16.93;;
6105;SDS011;3083;51.508;7.966;2023-11-21T11:33:38;62.87;;;17.57;;
6105;SDS011;3083;51.508;7.966;2023-11-21T11:36:10;51.50;;;14.90;;
6105;SDS011;3083;51.508;7.966;2023-11-21T11:38:45;51.30;;;14.53;;
6105;SDS011;3083;51.508;7.966;2023-11-21T11:41:19;58.30;;;14.83;;
6105;SDS011;3083;51.508;7.966;2023-11-21T11:43:51;51.60;;;15.27;;
6105;SDS011;3083;51.508;7.966;2023-11-21T11:46:19;40.83;;;12.40;;
6105;SDS011;3083;51.508;7.966;2023-11-21T11:48:48;41.50;;;12.80;;
6105;SDS011;3083;51.508;7.966;2023-11-21T11:51:28;41.00;;;12.27;;
6105;SDS011;3083;51.508;7.966;2023-11-21T11:53:56;43.30;;;11.60;;
6105;SDS011;3083;51.508;7.966;2023-11-21T11:56:24;35.70;;;11.30;;
6105;SDS011;3083;51.508;7.966;2023-11-21T11:58:53;42.30;;;13.40;;
6105;SDS011;3083;51.508;7.966;2023-11-21T12:01:23;47.33;;;12.70;;
6105;SDS011;3083;51.508;7.966;2023-11-21T12:07:00;53.33;;;15.90;;
6105;SDS011;3083;51.508;7.966;2023-11-21T12:09:28;44.53;;;13.80;;
6105;SDS011;3083;51.508;7.966;2023-11-21T12:11:57;46.80;;;14.37;;
6105;SDS011;3083;51.508;7.966;2023-11-21T12:14:25;47.70;;;14.10;;
6105;SDS011;3083;51.508;7.966;2023-11-21T12:16:53;51.20;;;14.80;;
6105;SDS011;3083;51.508;7.966;2023-11-21T12:19:21;53.63;;;15.87;;
6105;SDS011;3083;51.508;7.966;2023-11-21T12:21:48;54.87;;;16.03;;
6105;SDS011;3083;51.508;7.966;2023-11-21T12:24:15;48.80;;;16.20;;
6105;SDS011;3083;51.508;7.966;2023-11-21T12:26:43;53.07;;;16.67;;
6105;SDS011;3083;51.508;7.966;2023-11-21T12:29:10;53.17;;;16.50;;
6105;SDS011;3083;51.508;7.966;2023-11-21T12:31:37;56.30;;;16.77;;
6105;SDS011;3083;51.508;7.966;2023-11-21T12:34:06;53.77;;;15.80;;
6105;SDS011;3083;51.508;7.966;2023-11-21T12:36:36;61.20;;;18.07;;
6105;SDS011;3083;51.508;7.966;2023-11-21T12:39:03;64.27;;;19.23;;
6105;SDS011;3083;51.508;7.966;2023-11-21T12:41:34;63.17;;;19.43;;
6105;SDS011;3083;51.508;7.966;2023-11-21T12:44:01;54.43;;;17.70;;
6105;SDS011;3083;51.508;7.966;2023-11-21T12:46:28;71.10;;;17.70;;
6105;SDS011;3083;51.508;7.966;2023-11-21T12:48:57;60.93;;;17.93;;
6105;SDS011;3083;51.508;7.966;2023-11-21T12:51:25;57.90;;;16.53;;
6105;SDS011;3083;51.508;7.966;2023-11-21T12:53:52;88.10;;;18.70;;
6105;SDS011;3083;51.508;7.966;2023-11-21T12:56:20;68.10;;;19.80;;
6105;SDS011;3083;51.508;7.966;2023-11-21T12:58:49;55.40;;;16.30;;
6105;SDS011;3083;51.508;7.966;2023-11-21T13:01:17;64.07;;;14.83;;
6105;SDS011;3083;51.508;7.966;2023-11-21T13:03:47;43.67;;;14.97;;
6105;SDS011;3083;51.508;7.966;2023-11-21T13:06:16;50.53;;;14.50;;
6105;SDS011;3083;51.508;7.966;2023-11-21T13:08:46;54.33;;;14.97;;
6105;SDS011;3083;51.508;7.966;2023-11-21T13:11:13;57.10;;;15.77;;
6105;SDS011;3083;51.508;7.966;2023-11-21T13:13:40;45.70;;;14.30;;
6105;SDS011;3083;51.508;7.966;2023-11-21T13:16:09;43.27;;;13.40;;
6105;SDS011;3083;51.508;7.966;2023-11-21T13:18:36;39.60;;;13.03;;
6105;SDS011;3083;51.508;7.966;2023-11-21T13:21:05;46.17;;;14.90;;
6105;SDS011;3083;51.508;7.966;2023-11-21T13:23:37;37.60;;;13.33;;
6105;SDS011;3083;51.508;7.966;2023-11-21T13:26:07;41.53;;;12.77;;
6105;SDS011;3083;51.508;7.966;2023-11-21T13:28:35;31.93;;;12.27;;
6105;SDS011;3083;51.508;7.966;2023-11-21T13:31:03;41.77;;;11.37;;
6105;SDS011;3083;51.508;7.966;2023-11-21T13:33:45;29.23;;;9.70;;
6105;SDS011;3083;51.508;7.966;2023-11-21T13:36:16;19.97;;;8.50;;
6105;SDS011;3083;51.508;7.966;2023-11-21T13:38:47;26.70;;;9.80;;
6105;SDS011;3083;51.508;7.966;2023-11-21T13:41:15;24.13;;;9.23;;
6105;SDS011;3083;51.508;7.966;2023-11-21T13:43:43;41.73;;;9.63;;
6105;SDS011;3083;51.508;7.966;2023-11-21T13:46:15;26.60;;;9.20;;
6105;SDS011;3083;51.508;7.966;2023-11-21T13:48:46;29.03;;;11.33;;
6105;SDS011;3083;51.508;7.966;2023-11-21T13:51:15;30.73;;;10.60;;
6105;SDS011;3083;51.508;7.966;2023-11-21T13:53:43;32.53;;;11.10;;
6105;SDS011;3083;51.508;7.966;2023-11-21T13:56:12;26.37;;;10.40;;
6105;SDS011;3083;51.508;7.966;2023-11-21T13:58:44;26.90;;;10.50;;
6105;SDS011;3083;51.508;7.966;2023-11-21T14:01:16;27.33;;;9.50;;
6105;SDS011;3083;51.508;7.966;2023-11-21T14:04:06;24.30;;;9.60;;
6105;SDS011;3083;51.508;7.966;2023-11-21T14:09:14;23.13;;;9.10;;
6105;SDS011;3083;51.508;7.966;2023-11-21T14:11:47;26.67;;;9.20;;
6105;SDS011;3083;51.508;7.966;2023-11-21T14:14:18;24.13;;;10.03;;
6105;SDS011;3083;51.508;7.966;2023-11-21T14:16:45;26.00;;;8.80;;
6105;SDS011;3083;51.508;7.966;2023-11-21T14:19:12;22.53;;;8.50;;
6105;SDS011;3083;51.508;7.966;2023-11-21T14:21:42;25.40;;;8.83;;
6105;SDS011;3083;51.508;7.966;2023-11-21T14:24:09;27.60;;;8.97;;
6105;SDS011;3083;51.508;7.966;2023-11-21T14:26:38;20.70;;;9.00;;
6105;SDS011;3083;51.508;7.966;2023-11-21T14:29:06;21.00;;;9.50;;
6105;SDS011;3083;51.508;7.966;2023-11-21T14:31:35;20.53;;;9.20;;
6105;SDS011;3083;51.508;7.966;2023-11-21T14:34:02;20.40;;;8.50;;
6105;SDS011;3083;51.508;7.966;2023-11-21T14:36:31;21.97;;;8.80;;
6105;SDS011;3083;51.508;7.966;2023-11-21T14:38:58;18.97;;;8.40;;
6105;SDS011;3083;51.508;7.966;2023-11-21T14:41:25;21.30;;;10.73;;
6105;SDS011;3083;51.508;7.966;2023-11-21T14:43:53;24.10;;;10.00;;
6105;SDS011;3083;51.508;7.966;2023-11-21T14:46:20;22.87;;;9.60;;
6105;SDS011;3083;51.508;7.966;2023-11-21T14:48:48;19.60;;;7.83;;
6105;SDS011;3083;51.508;7.966;2023-11-21T14:51:23;21.10;;;9.33;;
6105;SDS011;3083;51.508;7.966;2023-11-21T14:53:55;27.37;;;9.93;;
6105;SDS011;3083;51.508;7.966;2023-11-21T14:56:26;21.23;;;9.10;;
6105;SDS011;3083;51.508;7.966;2023-11-21T14:58:56;19.47;;;8.60;;
6105;SDS011;3083;51.508;7.966;2023-11-21T15:01:23;20.73;;;8.57;;